Time;durP1;ratioP1;P1;durP2;ratioP2;P2;SDS_P1;SDS_P2;PMS_P1;PMS_P2;Temp;Humidity;BMP_temperature;BMP_pressure;BME280_temperature;BME280_humidity;BME280_pressure;Samples;Min_cycle;Max_cycle;Signal;HPM_P1;HPM_P2
2023/05/30 00:02:13;;;;;;;13.15;6.43;;;;;;;11.18;100.00;94052.84;5062073;28;20385;-58
2023/05/30 00:04:40;;;;;;;9.90;6.43;;;;;;;11.17;100.00;94043.84;5030231;28;20453;-59
2023/05/30 00:07:07;;;;;;;11.55;5.95;;;;;;;11.19;100.00;94048.91;5060221;28;20040;-58
2023/05/30 00:09:34;;;;;;;8.38;4.80;;;;;;;11.19;100.00;94044.19;5048756;28;20337;-61
2023/05/30 00:12:01;;;;;;;12.38;4.70;;;;;;;11.19;100.00;94037.94;5048235;28;20049;-59
2023/05/30 00:14:28;;;;;;;7.65;5.00;;;;;;;11.09;100.00;94041.63;5062653;28;20389;-58
2023/05/30 00:16:56;;;;;;;8.77;4.90;;;;;;;10.95;100.00;94039.88;5059389;28;20487;-59
2023/05/30 00:19:23;;;;;;;7.85;4.50;;;;;;;10.93;100.00;94042.25;5034613;28;20029;-58
2023/05/30 00:21:50;;;;;;;9.43;5.10;;;;;;;10.87;100.00;94038.41;5058284;28;20366;-59
2023/05/30 00:24:17;;;;;;;7.60;4.78;;;;;;;10.84;100.00;94040.00;5047295;28;20048;-59
2023/05/30 00:26:44;;;;;;;8.10;5.10;;;;;;;10.79;100.00;94035.75;5047968;28;20055;-63
2023/05/30 00:29:11;;;;;;;17.63;9.93;;;;;;;10.79;100.00;94038.50;5048134;28;20132;-59
2023/05/30 00:31:38;;;;;;;10.20;6.00;;;;;;;10.54;100.00;94040.81;5063212;28;20055;-58
2023/05/30 00:34:05;;;;;;;8.88;5.70;;;;;;;10.53;100.00;94036.53;5058680;28;20505;-58
2023/05/30 00:36:31;;;;;;;8.18;5.20;;;;;;;10.62;100.00;94036.78;5047236;28;20129;-58
2023/05/30 00:38:58;;;;;;;8.68;5.60;;;;;;;10.56;100.00;94043.91;5030327;28;20330;-60
2023/05/30 00:41:27;;;;;;;10.70;5.60;;;;;;;10.67;100.00;94036.31;5047070;28;20037;-60
2023/05/30 00:43:53;;;;;;;9.48;5.13;;;;;;;10.72;100.00;94030.34;5048044;28;20039;-59
2023/05/30 00:46:23;;;;;;;7.78;4.80;;;;;;;10.78;100.00;94034.22;5051589;28;20036;-58
2023/05/30 00:48:53;;;;;;;9.80;5.32;;;;;;;10.64;100.00;94037.13;5051866;28;20039;-60
2023/05/30 00:51:20;;;;;;;8.32;5.63;;;;;;;10.64;100.00;94037.13;5068043;28;20045;-61
2023/05/30 00:53:47;;;;;;;8.50;5.30;;;;;;;10.57;100.00;94038.03;5060608;28;20037;-60
2023/05/30 00:56:15;;;;;;;8.55;5.30;;;;;;;10.58;100.00;94047.81;5052274;28;20045;-58
2023/05/30 00:58:42;;;;;;;8.93;5.00;;;;;;;10.57;100.00;94048.22;5033558;28;20762;-58
2023/05/30 01:01:09;;;;;;;8.23;5.28;;;;;;;10.62;100.00;94041.50;5065694;28;20063;-58
2023/05/30 01:03:37;;;;;;;9.73;5.70;;;;;;;10.45;100.00;94048.78;5051760;28;20138;-60
2023/05/30 01:06:06;;;;;;;9.37;5.20;;;;;;;10.54;100.00;94046.28;5052111;28;20409;-59
2023/05/30 01:08:33;;;;;;;9.27;5.45;;;;;;;10.58;100.00;94042.34;5051498;28;20068;-59
2023/05/30 01:11:30;;;;;;;9.27;5.65;;;;;;;10.59;100.00;94045.84;5052040;28;20037;-58
2023/05/30 01:14:30;;;;;;;8.68;5.07;;;;;;;10.57;100.00;94050.97;5064242;28;20039;-58
2023/05/30 01:17:16;;;;;;;9.18;5.07;;;;;;;10.52;100.00;94051.41;5022922;28;20227;-58
2023/05/30 01:20:05;;;;;;;8.73;5.03;;;;;;;10.49;100.00;94049.50;5043280;28;20849;-58
2023/05/30 01:22:54;;;;;;;8.02;5.18;;;;;;;10.50;100.00;94049.09;5049430;28;20067;-61
2023/05/30 01:25:48;;;;;;;7.05;4.70;;;;;;;10.52;100.00;94041.25;5055491;28;20041;-61
2023/05/30 01:28:21;;;;;;;6.90;4.60;;;;;;;10.56;100.00;94041.97;5051805;28;20037;-58
2023/05/30 01:30:51;;;;;;;8.95;5.15;;;;;;;10.48;100.00;94040.47;5050354;28;21046;-59
2023/05/30 01:33:22;;;;;;;9.13;5.10;;;;;;;10.33;100.00;94042.63;5045698;28;20037;-59
2023/05/30 01:35:49;;;;;;;9.38;5.30;;;;;;;10.27;100.00;94041.50;5060617;28;20048;-58
2023/05/30 01:38:16;;;;;;;8.75;5.05;;;;;;;10.17;100.00;94036.94;5052945;28;20045;-56
2023/05/30 01:40:47;;;;;;;7.53;4.72;;;;;;;10.25;100.00;94043.13;5043549;28;20040;-63
2023/05/30 01:43:38;;;;;;;8.73;5.18;;;;;;;10.30;100.00;94034.44;5039673;28;20037;-58
2023/05/30 01:46:23;;;;;;;7.43;5.07;;;;;;;10.29;100.00;94036.38;5036891;28;21546;-63
2023/05/30 01:48:53;;;;;;;8.95;4.97;;;;;;;10.37;100.00;94037.88;5060701;28;20381;-59
2023/05/30 01:51:44;;;;;;;9.30;5.00;;;;;;;10.59;100.00;94038.38;5067987;28;20497;-59
2023/05/30 01:54:15;;;;;;;9.57;5.10;;;;;;;10.53;100.00;94040.03;5056190;28;20117;-61
2023/05/30 01:56:46;;;;;;;9.05;5.50;;;;;;;10.29;100.00;94041.88;5050128;28;20082;-58
2023/05/30 01:59:14;;;;;;;8.17;5.10;;;;;;;10.09;100.00;94051.91;5033334;28;20041;-62
2023/05/30 02:01:42;;;;;;;8.68;5.03;;;;;;;9.99;100.00;94061.81;5050154;28;20029;-60
2023/05/30 02:04:09;;;;;;;8.98;5.38;;;;;;;9.67;100.00;94064.88;5035510;28;20362;-59
2023/05/30 02:06:37;;;;;;;10.75;5.43;;;;;;;9.71;100.00;94060.13;5050798;28;21718;-58
2023/05/30 02:09:04;;;;;;;7.97;4.90;;;;;;;9.62;100.00;94057.88;5030855;28;20048;-58
2023/05/30 02:11:30;;;;;;;9.37;5.53;;;;;;;9.65;100.00;94048.06;5022902;28;20055;-58
2023/05/30 02:13:57;;;;;;;8.32;5.10;;;;;;;9.66;100.00;94055.09;5061959;28;20040;-61
2023/05/30 02:16:24;;;;;;;9.30;5.35;;;;;;;9.67;100.00;94059.38;5039020;28;20063;-61
2023/05/30 02:18:52;;;;;;;9.43;5.50;;;;;;;9.70;100.00;94055.81;5032756;28;20055;-63
2023/05/30 02:21:20;;;;;;;10.05;5.38;;;;;;;9.80;100.00;94057.72;5053771;28;20378;-58
2023/05/30 02:23:46;;;;;;;9.77;5.47;;;;;;;9.86;100.00;94058.81;5035332;28;20042;-58
2023/05/30 02:26:13;;;;;;;13.23;5.60;;;;;;;9.85;100.00;94051.75;5038484;28;20033;-58
2023/05/30 02:28:40;;;;;;;10.70;5.68;;;;;;;9.93;100.00;94055.22;5033789;28;20037;-58
2023/05/30 02:31:06;;;;;;;9.02;5.40;;;;;;;9.97;100.00;94056.72;5050980;28;20039;-64
2023/05/30 02:33:33;;;;;;;9.43;5.50;;;;;;;10.00;100.00;94047.69;5054495;28;20044;-59
2023/05/30 02:36:00;;;;;;;9.13;5.70;;;;;;;10.02;100.00;94046.50;5050616;28;20414;-58
2023/05/30 02:38:26;;;;;;;8.68;5.20;;;;;;;10.06;100.00;94045.28;5032072;28;20045;-58
2023/05/30 02:40:53;;;;;;;9.48;5.45;;;;;;;9.94;100.00;94051.28;5029434;28;20067;-62
2023/05/30 02:43:20;;;;;;;9.77;5.78;;;;;;;9.98;100.00;94054.78;5033124;28;20037;-59
2023/05/30 02:45:47;;;;;;;8.32;5.18;;;;;;;10.04;100.00;94053.16;5052237;28;20055;-61
2023/05/30 02:48:14;;;;;;;8.97;5.30;;;;;;;10.03;100.00;94048.84;5051285;28;20037;-58
2023/05/30 02:50:41;;;;;;;8.57;5.30;;;;;;;10.13;100.00;94056.16;5038752;28;20392;-58
2023/05/30 02:53:07;;;;;;;9.45;5.05;;;;;;;10.10;100.00;94056.19;5031778;28;20043;-58
2023/05/30 02:55:34;;;;;;;8.45;4.95;;;;;;;10.20;100.00;94060.78;5040481;28;20053;-58
2023/05/30 02:58:01;;;;;;;9.20;5.13;;;;;;;10.29;100.00;94061.06;5059825;28;20051;-60
2023/05/30 03:00:28;;;;;;;8.00;4.93;;;;;;;10.09;100.00;94060.13;5045854;28;20041;-58
2023/05/30 03:02:55;;;;;;;7.90;5.20;;;;;;;9.84;100.00;94061.19;5064803;28;20040;-60
2023/05/30 03:05:22;;;;;;;8.80;5.53;;;;;;;9.27;100.00;94056.97;5044171;28;20086;-58
2023/05/30 03:07:51;;;;;;;10.02;5.10;;;;;;;9.50;100.00;94061.13;5058014;28;20037;-58
2023/05/30 03:10:18;;;;;;;10.85;5.75;;;;;;;9.49;100.00;94060.31;5038271;28;20033;-58
2023/05/30 03:12:45;;;;;;;9.30;5.30;;;;;;;9.52;100.00;94056.78;5045555;28;20060;-59
2023/05/30 03:15:12;;;;;;;8.48;5.13;;;;;;;9.53;100.00;94063.81;5048785;28;20041;-58
2023/05/30 03:17:42;;;;;;;9.77;5.78;;;;;;;9.62;100.00;94071.56;5048472;28;20478;-62
2023/05/30 03:20:09;;;;;;;9.70;5.80;;;;;;;9.67;100.00;94067.63;5044805;28;20041;-59
2023/05/30 03:22:36;;;;;;;10.90;5.55;;;;;;;9.69;100.00;94074.22;5059837;28;20047;-58
2023/05/30 03:25:03;;;;;;;9.33;5.57;;;;;;;9.73;100.00;94066.75;5045144;28;20045;-63
2023/05/30 03:27:30;;;;;;;10.80;6.55;;;;;;;9.73;100.00;94066.00;5062186;28;20174;-58
2023/05/30 03:29:57;;;;;;;9.45;5.68;;;;;;;9.57;100.00;94063.78;5049215;28;20035;-58
2023/05/30 03:32:23;;;;;;;9.63;5.88;;;;;;;9.23;100.00;94071.91;5039629;28;20064;-61
2023/05/30 03:34:50;;;;;;;9.43;5.80;;;;;;;9.52;100.00;94069.72;5030350;28;20063;-58
2023/05/30 03:37:17;;;;;;;9.43;6.00;;;;;;;9.59;100.00;94080.59;5040040;28;20046;-62
2023/05/30 03:39:44;;;;;;;8.75;5.63;;;;;;;9.67;100.00;94076.59;5067801;28;20039;-60
2023/05/30 03:42:10;;;;;;;8.95;5.47;;;;;;;9.70;100.00;94070.31;5048221;28;20041;-58
2023/05/30 03:44:37;;;;;;;11.27;6.00;;;;;;;9.74;100.00;94078.53;5051217;28;20048;-59
2023/05/30 03:47:04;;;;;;;9.95;5.93;;;;;;;9.80;100.00;94082.38;5057379;28;20045;-61
2023/05/30 03:49:31;;;;;;;9.40;5.70;;;;;;;9.86;100.00;94074.47;5039415;28;20040;-63
2023/05/30 03:51:58;;;;;;;9.60;5.63;;;;;;;9.93;100.00;94075.19;5047719;28;20090;-60
2023/05/30 03:54:24;;;;;;;8.57;6.15;;;;;;;10.00;100.00;94071.59;5039783;28;20033;-58
2023/05/30 03:56:51;;;;;;;10.90;6.03;;;;;;;10.06;100.00;94077.41;5058537;28;20033;-59
2023/05/30 03:59:18;;;;;;;9.68;5.90;;;;;;;10.10;100.00;94076.19;5028542;28;20037;-62
2023/05/30 04:01:45;;;;;;;8.83;5.73;;;;;;;9.83;100.00;94070.59;5028938;28;20032;-60
2023/05/30 04:04:11;;;;;;;11.68;7.22;;;;;;;9.58;100.00;94068.88;5019699;28;20401;-58
2023/05/30 04:06:39;;;;;;;18.17;11.27;;;;;;;9.90;100.00;94069.72;5028706;28;20041;-59
2023/05/30 04:09:07;;;;;;;13.48;6.57;;;;;;;10.03;100.00;94078.22;5028752;28;20041;-58
2023/05/30 04:11:34;;;;;;;12.48;6.30;;;;;;;10.23;100.00;94081.91;5028222;28;20075;-58
2023/05/30 04:14:01;;;;;;;12.40;6.57;;;;;;;10.25;100.00;94087.00;5037681;28;20043;-58
2023/05/30 04:16:28;;;;;;;9.55;5.93;;;;;;;10.51;100.00;94088.28;5042652;28;20055;-59
2023/05/30 04:18:55;;;;;;;10.35;6.30;;;;;;;10.63;100.00;94085.00;5029891;28;20099;-63
2023/05/30 04:21:22;;;;;;;10.32;6.75;;;;;;;10.53;100.00;94092.16;5045981;28;20482;-59
2023/05/30 04:23:49;;;;;;;11.85;6.55;;;;;;;10.77;100.00;94101.28;5056153;28;20049;-59
2023/05/30 04:26:16;;;;;;;12.33;6.27;;;;;;;10.74;100.00;94095.81;5054099;28;20040;-59
2023/05/30 04:28:43;;;;;;;11.43;6.80;;;;;;;11.05;100.00;94104.84;5046639;28;20044;-59
2023/05/30 04:31:10;;;;;;;15.55;7.68;;;;;;;11.24;100.00;94105.34;5045269;28;20075;-59
2023/05/30 04:33:48;;;;;;;12.55;7.13;;;;;;;11.41;100.00;94118.06;5052992;28;20378;-62
2023/05/30 04:36:18;;;;;;;10.88;7.28;;;;;;;11.55;100.00;94103.28;5041273;28;20045;-59
2023/05/30 04:38:51;;;;;;;11.83;7.50;;;;;;;11.54;100.00;94110.75;5047249;28;20301;-59
2023/05/30 04:41:20;;;;;;;11.23;7.28;;;;;;;11.67;100.00;94110.16;5056617;28;20040;-63
2023/05/30 04:43:48;;;;;;;11.50;7.38;;;;;;;11.59;100.00;94117.78;5067760;28;20036;-59
2023/05/30 04:46:21;;;;;;;10.88;7.05;;;;;;;11.33;100.00;94114.63;5062137;28;20119;-60
2023/05/30 04:48:53;;;;;;;11.95;7.40;;;;;;;11.59;100.00;94110.31;5069519;28;20853;-59
2023/05/30 04:51:21;;;;;;;11.27;7.07;;;;;;;11.67;100.00;94116.47;5047859;28;20067;-62
2023/05/30 04:53:49;;;;;;;10.02;6.53;;;;;;;11.88;100.00;94112.56;5043684;28;20041;-58
2023/05/30 04:56:16;;;;;;;12.13;6.70;;;;;;;12.13;100.00;94111.38;5048199;28;20508;-58
2023/05/30 04:58:44;;;;;;;13.13;7.20;;;;;;;12.38;100.00;94117.22;5047406;28;20903;-58
2023/05/30 05:01:11;;;;;;;12.18;7.78;;;;;;;12.45;100.00;94119.03;5048000;28;20045;-59
2023/05/30 05:03:38;;;;;;;11.03;6.87;;;;;;;12.60;100.00;94116.78;5043344;28;20037;-59
2023/05/30 05:06:06;;;;;;;18.42;11.20;;;;;;;12.50;100.00;94110.31;5050337;28;20039;-61
2023/05/30 05:08:36;;;;;;;16.77;7.90;;;;;;;12.71;100.00;94109.09;5054576;28;20045;-59
2023/05/30 05:11:05;;;;;;;16.50;7.40;;;;;;;12.74;100.00;94116.50;5048125;28;20049;-59
2023/05/30 05:13:33;;;;;;;11.05;7.10;;;;;;;12.73;100.00;94116.94;5064210;28;20074;-58
2023/05/30 05:16:01;;;;;;;11.87;6.80;;;;;;;12.91;100.00;94114.56;5048894;28;20071;-60
2023/05/30 05:18:28;;;;;;;11.65;6.88;;;;;;;13.11;100.00;94114.53;5047714;28;20052;-58
2023/05/30 05:20:55;;;;;;;31.48;7.70;;;;;;;13.19;100.00;94118.69;5048506;28;20159;-58
2023/05/30 05:23:23;;;;;;;16.30;7.25;;;;;;;13.67;100.00;94127.50;5055539;28;20037;-61
2023/05/30 05:25:50;;;;;;;12.13;7.45;;;;;;;14.91;95.50;94126.66;5051780;28;20037;-62
2023/05/30 05:28:17;;;;;;;11.47;7.07;;;;;;;15.96;88.96;94119.56;5056380;28;20053;-56
2023/05/30 05:30:44;;;;;;;15.32;7.05;;;;;;;17.21;80.13;94125.53;5047701;28;20375;-58
2023/05/30 05:33:13;;;;;;;15.15;7.03;;;;;;;17.74;75.64;94122.66;5051620;28;20045;-61
2023/05/30 05:35:40;;;;;;;11.85;6.38;;;;;;;17.91;73.82;94122.47;5050958;28;20037;-62
2023/05/30 05:38:07;;;;;;;18.77;7.68;;;;;;;17.46;72.81;94121.78;5051405;28;20047;-59
2023/05/30 05:40:34;;;;;;;11.73;6.83;;;;;;;16.47;79.10;94133.28;5033368;28;20048;-58
2023/05/30 05:43:01;;;;;;;14.90;7.60;;;;;;;17.03;76.69;94128.94;5051262;28;20326;-61
2023/05/30 05:45:28;;;;;;;13.80;6.63;;;;;;;17.42;75.91;94135.03;5050858;28;20037;-58
2023/05/30 05:47:54;;;;;;;11.57;7.25;;;;;;;17.78;73.46;94131.63;5070027;28;20044;-58
2023/05/30 05:50:22;;;;;;;14.80;6.97;;;;;;;17.30;75.48;94141.44;5051545;28;20447;-58
2023/05/30 05:52:50;;;;;;;11.23;7.00;;;;;;;17.76;73.00;94134.09;5051196;28;20047;-59
2023/05/30 05:55:17;;;;;;;11.32;6.95;;;;;;;16.89;74.87;94137.78;5063886;28;20040;-57
2023/05/30 05:57:43;;;;;;;11.68;7.38;;;;;;;15.44;83.84;94151.22;5051134;28;20474;-62
2023/05/30 06:00:10;;;;;;;9.80;6.97;;;;;;;16.91;79.78;94146.44;5051029;28;20048;-58
2023/05/30 06:02:37;;;;;;;11.02;6.63;;;;;;;16.56;80.48;94146.44;5069304;28;20052;-58
2023/05/30 06:05:06;;;;;;;14.77;7.50;;;;;;;17.11;79.52;94143.34;5063015;28;20364;-58
2023/05/30 06:07:34;;;;;;;16.50;7.38;;;;;;;17.55;77.31;94143.28;5049926;28;20052;-59
2023/05/30 06:10:00;;;;;;;11.00;7.57;;;;;;;18.36;72.39;94141.22;5050190;28;20542;-58
2023/05/30 06:12:27;;;;;;;14.32;7.13;;;;;;;18.76;71.08;94140.31;5049594;28;20106;-59
2023/05/30 06:14:54;;;;;;;14.13;7.15;;;;;;;19.93;65.30;94138.25;5062226;28;20078;-59
2023/05/30 06:17:21;;;;;;;9.67;6.90;;;;;;;21.31;61.29;94133.75;5049724;28;20052;-64
2023/05/30 06:19:50;;;;;;;11.05;6.70;;;;;;;19.60;64.86;94138.22;5049927;28;20048;-59
2023/05/30 06:22:17;;;;;;;9.90;6.60;;;;;;;19.76;64.94;94142.69;5049785;28;20401;-60
2023/05/30 06:24:44;;;;;;;11.95;6.70;;;;;;;18.56;69.45;94140.00;5049815;28;20036;-59
2023/05/30 06:27:11;;;;;;;11.00;6.95;;;;;;;19.44;64.67;94147.69;5050169;28;20044;-59
2023/05/30 06:29:38;;;;;;;11.93;6.80;;;;;;;18.81;66.45;94147.28;5031437;28;20037;-60
2023/05/30 06:32:05;;;;;;;11.35;6.55;;;;;;;20.85;60.45;94155.72;5042625;28;20032;-65
2023/05/30 06:34:42;;;;;;;11.20;6.63;;;;;;;19.94;64.52;94156.53;5055337;28;20495;-60
2023/05/30 06:37:10;;;;;;;10.10;6.90;;;;;;;19.02;65.60;94155.97;5064046;28;20047;-59
2023/05/30 06:39:37;;;;;;;11.15;6.70;;;;;;;20.56;60.69;94143.16;5049502;28;20057;-60
2023/05/30 06:42:10;;;;;;;9.77;6.70;;;;;;;19.66;62.96;94152.25;5043595;28;20082;-65
2023/05/30 06:44:37;;;;;;;10.00;6.53;;;;;;;19.15;63.88;94165.66;5061787;28;20054;-60
2023/05/30 06:47:05;;;;;;;10.85;6.80;;;;;;;20.07;63.10;94167.44;5053363;28;20040;-62
2023/05/30 06:49:32;;;;;;;9.00;6.47;;;;;;;20.26;61.44;94161.78;5049008;28;20055;-60
2023/05/30 06:51:58;;;;;;;9.10;6.47;;;;;;;21.96;55.22;94154.63;5049751;28;20055;-59
2023/05/30 06:54:25;;;;;;;11.13;6.53;;;;;;;20.87;59.06;94156.00;5049522;28;20029;-59
2023/05/30 06:56:52;;;;;;;9.35;5.55;;;;;;;23.00;53.44;94151.47;5037827;28;20065;-60
2023/05/30 06:59:19;;;;;;;11.32;6.45;;;;;;;20.68;59.25;94158.13;5068754;28;20365;-63
2023/05/30 07:01:46;;;;;;;9.48;6.18;;;;;;;21.48;55.12;94167.56;5061915;28;20036;-60
2023/05/30 07:04:13;;;;;;;11.45;6.57;;;;;;;21.44;55.88;94160.63;5049469;28;20029;-61
2023/05/30 07:06:40;;;;;;;9.40;6.70;;;;;;;21.07;55.62;94158.16;5048751;28;20037;-62
2023/05/30 07:09:07;;;;;;;10.70;6.03;;;;;;;23.81;50.06;94152.59;5060234;28;20369;-60
2023/05/30 07:11:34;;;;;;;9.35;6.40;;;;;;;20.40;57.20;94160.31;5059199;28;20049;-60
2023/05/30 07:14:00;;;;;;;10.23;5.80;;;;;;;23.44;49.93;94158.84;5058816;28;20041;-64
2023/05/30 07:16:27;;;;;;;10.05;5.90;;;;;;;23.66;48.62;94161.09;5055194;28;20043;-61
2023/05/30 07:18:54;;;;;;;9.97;5.57;;;;;;;23.55;46.91;94153.34;5069567;28;20060;-65
2023/05/30 07:21:38;;;;;;;8.30;6.40;;;;;;;20.20;55.52;94170.00;5050931;28;20041;-60
2023/05/30 07:24:05;;;;;;;8.10;5.60;;;;;;;23.23;50.14;94161.69;5060693;28;20041;-63
2023/05/30 07:26:31;;;;;;;11.32;6.53;;;;;;;19.97;58.41;94168.72;5030913;28;20068;-61
2023/05/30 07:28:58;;;;;;;13.27;5.90;;;;;;;22.34;50.53;94162.09;5049116;28;20048;-61
2023/05/30 07:31:25;;;;;;;9.10;5.80;;;;;;;23.64;49.01;94160.81;5061954;28;20045;-60
2023/05/30 07:33:52;;;;;;;7.65;5.40;;;;;;;22.82;51.58;94149.72;5049349;28;20126;-58
2023/05/30 07:36:19;;;;;;;9.15;5.90;;;;;;;22.31;49.85;94157.47;5061733;28;20391;-58
2023/05/30 07:38:46;;;;;;;10.98;5.90;;;;;;;22.08;49.88;94159.91;5049135;28;20048;-59
2023/05/30 07:41:12;;;;;;;8.68;5.80;;;;;;;24.40;46.43;94154.03;5062362;28;20078;-59
2023/05/30 07:43:39;;;;;;;8.73;5.60;;;;;;;23.29;47.34;94144.94;5048480;28;20041;-64
2023/05/30 07:46:06;;;;;;;8.07;5.90;;;;;;;24.66;43.75;94146.28;5064639;28;20043;-60
2023/05/30 07:48:33;;;;;;;9.50;5.38;;;;;;;24.16;45.26;94137.56;5048640;28;20041;-58
2023/05/30 07:51:00;;;;;;;8.65;5.90;;;;;;;21.96;48.53;94143.47;5062590;28;20118;-62
2023/05/30 07:53:26;;;;;;;7.57;5.00;;;;;;;25.57;44.16;94130.50;5051656;28;20045;-59
2023/05/30 07:55:53;;;;;;;9.20;5.73;;;;;;;21.71;49.29;94143.59;5041485;28;20388;-59
2023/05/30 07:58:22;;;;;;;7.90;5.63;;;;;;;22.83;50.06;94123.28;5051366;28;20048;-61
2023/05/30 08:00:48;;;;;;;7.78;5.70;;;;;;;21.77;50.78;94135.28;5048643;28;20040;-59
2023/05/30 08:03:15;;;;;;;8.38;5.75;;;;;;;22.64;47.81;94134.78;5048649;28;20037;-59
2023/05/30 08:05:42;;;;;;;8.70;5.20;;;;;;;22.48;50.23;94129.75;5055530;28;20489;-58
2023/05/30 08:08:09;;;;;;;10.10;5.47;;;;;;;24.26;46.09;94133.28;5054039;28;20036;-59
2023/05/30 08:10:36;;;;;;;8.10;5.60;;;;;;;24.62;45.21;94130.97;5047864;28;20055;-64
2023/05/30 08:13:02;;;;;;;10.60;5.90;;;;;;;23.22;47.77;94132.16;5048668;28;20032;-60
2023/05/30 08:15:29;;;;;;;8.77;5.55;;;;;;;23.38;48.04;94139.19;5054192;28;20047;-58
2023/05/30 08:17:56;;;;;;;9.75;5.60;;;;;;;24.56;44.93;94130.94;5054510;28;20036;-58
2023/05/30 08:20:24;;;;;;;8.80;5.87;;;;;;;20.18;54.66;94127.91;5047689;28;20082;-59
2023/05/30 08:22:51;;;;;;;8.90;5.90;;;;;;;22.85;49.57;94118.75;5048844;28;20067;-59
2023/05/30 08:25:23;;;;;;;8.52;6.30;;;;;;;20.30;55.75;94124.16;5048145;28;20048;-58
2023/05/30 08:27:53;;;;;;;9.25;5.80;;;;;;;21.09;55.34;94120.16;5048614;28;20045;-59
2023/05/30 08:30:20;;;;;;;7.55;5.35;;;;;;;22.62;51.61;94126.09;5060825;28;20136;-58
2023/05/30 08:32:46;;;;;;;9.90;5.47;;;;;;;23.90;47.33;94122.34;5048772;28;20037;-59
2023/05/30 08:35:13;;;;;;;9.23;5.40;;;;;;;20.47;56.58;94126.50;5054192;28;20033;-64
2023/05/30 08:37:41;;;;;;;9.18;6.35;;;;;;;20.32;57.49;94137.59;5067962;28;20474;-58
2023/05/30 08:40:12;;;;;;;8.40;5.72;;;;;;;20.87;55.48;94128.09;5054056;28;20045;-59
2023/05/30 08:42:41;;;;;;;9.93;5.75;;;;;;;22.51;52.59;94131.53;5062801;28;20109;-63
2023/05/30 08:45:08;;;;;;;9.50;5.50;;;;;;;23.84;48.34;94118.72;5068011;28;20055;-62
2023/05/30 08:47:35;;;;;;;9.40;5.90;;;;;;;23.10;47.24;94128.47;5065269;28;20045;-63
2023/05/30 08:50:04;;;;;;;9.05;5.53;;;;;;;24.45;46.21;94128.81;5048444;28;20056;-59
2023/05/30 08:52:32;;;;;;;9.32;6.03;;;;;;;22.41;51.85;94124.56;5060927;28;20453;-59
2023/05/30 08:55:10;;;;;;;8.98;5.63;;;;;;;22.50;50.85;94128.00;5059180;28;20044;-59
2023/05/30 08:57:51;;;;;;;8.07;5.97;;;;;;;22.72;50.37;94127.50;5036412;28;20050;-59
2023/05/30 09:00:18;;;;;;;8.48;5.80;;;;;;;24.94;45.54;94123.19;5036445;28;20044;-58
2023/05/30 09:02:46;;;;;;;10.77;5.55;;;;;;;23.41;50.11;94127.00;5053344;28;20389;-62
2023/05/30 09:05:15;;;;;;;8.45;5.50;;;;;;;23.22;48.02;94132.16;5068260;28;20045;-59
2023/05/30 09:07:44;;;;;;;8.80;5.70;;;;;;;22.77;51.43;94123.22;5051503;28;20684;-64
2023/05/30 09:10:11;;;;;;;10.20;5.30;;;;;;;26.66;43.87;94119.47;5051688;28;20049;-59
2023/05/30 09:12:41;;;;;;;9.38;5.78;;;;;;;27.66;40.56;94115.91;5036442;28;20037;-63
2023/05/30 09:15:08;;;;;;;7.03;4.82;;;;;;;30.09;35.95;94116.72;5071602;28;20037;-64
2023/05/30 09:17:35;;;;;;;8.90;5.28;;;;;;;29.37;35.31;94117.28;5018094;28;20041;-59
2023/05/30 09:20:02;;;;;;;9.13;4.90;;;;;;;29.47;35.56;94121.25;5065854;28;20052;-62
2023/05/30 09:22:30;;;;;;;9.23;5.07;;;;;;;27.77;36.46;94115.03;5063979;28;20055;-62
2023/05/30 09:25:02;;;;;;;7.43;4.65;;;;;;;30.49;33.33;94119.66;5054023;28;20039;-62
2023/05/30 09:27:30;;;;;;;7.38;4.57;;;;;;;31.60;31.31;94111.53;5058923;28;20079;-60
2023/05/30 09:30:05;;;;;;;11.82;6.32;;;;;;;29.76;33.21;94118.03;5039464;28;20040;-60
2023/05/30 09:32:34;;;;;;;7.97;4.90;;;;;;;30.57;30.98;94114.88;5057457;28;20048;-60
2023/05/30 09:35:09;;;;;;;8.50;4.60;;;;;;;30.73;31.53;94110.22;5068379;28;20400;-59
2023/05/30 09:37:42;;;;;;;9.20;4.60;;;;;;;31.97;29.88;94113.22;5062371;28;20044;-59
2023/05/30 09:40:17;;;;;;;6.85;4.35;;;;;;;30.91;30.46;94111.44;5051536;28;20420;-59
2023/05/30 09:42:54;;;;;;;6.75;4.47;;;;;;;31.83;29.11;94120.28;5033036;28;21422;-60
2023/05/30 09:45:23;;;;;;;6.95;4.60;;;;;;;30.62;30.74;94119.66;5058215;28;20041;-59
2023/05/30 09:47:52;;;;;;;7.10;4.63;;;;;;;31.65;29.77;94116.31;5057011;28;20040;-63
2023/05/30 09:50:21;;;;;;;7.05;4.80;;;;;;;31.85;29.70;94115.59;5050821;28;20040;-61
2023/05/30 09:52:51;;;;;;;7.75;4.75;;;;;;;31.84;27.68;94121.81;5066098;28;20056;-59
2023/05/30 09:55:19;;;;;;;6.82;4.60;;;;;;;32.93;28.42;94113.66;5033477;28;20045;-61
2023/05/30 09:57:50;;;;;;;7.00;4.50;;;;;;;33.77;26.49;94112.53;5050919;28;20037;-59
2023/05/30 10:00:25;;;;;;;7.97;4.30;;;;;;;31.99;27.99;94109.84;5050665;28;20044;-65
2023/05/30 10:02:54;;;;;;;7.97;4.32;;;;;;;31.91;27.60;94112.59;5064371;28;20094;-62
2023/05/30 10:05:24;;;;;;;7.45;4.50;;;;;;;29.35;31.49;94117.03;5050549;28;20036;-60
2023/05/30 10:07:53;;;;;;;9.13;4.50;;;;;;;27.88;30.87;94109.34;5050790;28;20041;-59
2023/05/30 10:10:20;;;;;;;6.82;3.90;;;;;;;28.35;31.03;94111.25;5054014;28;20400;-62
2023/05/30 10:12:49;;;;;;;9.60;4.97;;;;;;;28.48;32.29;94111.38;5059971;28;20098;-60
2023/05/30 10:15:16;;;;;;;7.32;4.60;;;;;;;28.69;31.57;94108.84;5054920;28;20036;-64
2023/05/30 10:17:50;;;;;;;7.57;4.38;;;;;;;29.32;30.53;94109.66;5070149;28;20449;-61
2023/05/30 10:20:21;;;;;;;6.57;4.88;;;;;;;27.13;33.30;94110.31;5051827;28;20443;-56
2023/05/30 10:22:52;;;;;;;8.13;4.40;;;;;;;30.16;30.40;94095.50;5051017;28;20106;-59
2023/05/30 10:25:20;;;;;;;13.43;4.83;;;;;;;28.12;32.46;94099.41;5050116;28;20047;-60
2023/05/30 10:27:57;;;;;;;6.78;4.55;;;;;;;29.78;30.12;94098.44;5032989;28;20044;-59
2023/05/30 10:30:30;;;;;;;7.70;4.70;;;;;;;26.57;33.65;94102.06;5050010;28;20037;-61
2023/05/30 10:33:04;;;;;;;8.52;4.45;;;;;;;27.44;32.83;94095.03;5050623;28;20040;-59
2023/05/30 10:35:32;;;;;;;6.85;4.40;;;;;;;26.68;33.54;94107.69;5057207;28;20098;-62
2023/05/30 10:38:04;;;;;;;8.90;4.40;;;;;;;27.51;33.82;94102.19;5070033;28;20040;-59
2023/05/30 10:40:40;;;;;;;8.73;4.78;;;;;;;25.36;35.88;94106.75;5061228;28;20124;-59
2023/05/30 10:43:19;;;;;;;8.98;5.10;;;;;;;26.76;34.35;94097.41;5050054;28;20055;-59
2023/05/30 10:46:09;;;;;;;7.53;4.60;;;;;;;26.36;35.24;94099.59;5049410;28;20040;-64
2023/05/30 10:48:43;;;;;;;8.77;4.85;;;;;;;25.85;36.69;94101.66;5049681;28;20114;-58
2023/05/30 10:51:11;;;;;;;8.47;5.27;;;;;;;24.68;38.95;94112.88;5065381;28;20142;-58
2023/05/30 10:53:43;;;;;;;8.02;5.05;;;;;;;24.61;38.71;94113.38;5060671;28;20048;-58
2023/05/30 10:56:39;;;;;;;7.72;4.82;;;;;;;24.62;39.63;94100.88;5051680;28;20520;-58
2023/05/30 10:59:18;;;;;;;8.02;5.22;;;;;;;25.59;38.35;94085.03;5057119;28;20819;-58
2023/05/30 11:02:06;;;;;;;8.82;5.30;;;;;;;25.06;39.09;94084.69;5056642;28;21559;-58
2023/05/30 11:04:38;;;;;;;7.50;5.00;;;;;;;25.93;37.90;94087.88;5053831;28;20040;-60
2023/05/30 11:07:11;;;;;;;8.82;5.10;;;;;;;25.50;37.79;94088.88;5050019;28;20045;-58
2023/05/30 11:09:41;;;;;;;8.48;5.10;;;;;;;23.87;40.11;94092.50;5049725;28;20079;-58
2023/05/30 11:12:21;;;;;;;9.38;5.00;;;;;;;24.75;38.38;94088.41;5049885;28;20485;-58
2023/05/30 11:14:59;;;;;;;8.73;5.20;;;;;;;24.56;40.00;94086.03;5067448;28;20836;-64
2023/05/30 11:17:30;;;;;;;7.87;5.03;;;;;;;25.86;37.30;94072.28;5060824;28;20071;-59
2023/05/30 11:20:14;;;;;;;9.63;4.90;;;;;;;25.09;37.77;94078.03;5045828;28;20040;-59
2023/05/30 11:23:01;;;;;;;8.30;4.97;;;;;;;23.90;38.86;94080.31;5049347;28;20139;-62
2023/05/30 11:25:29;;;;;;;8.02;4.78;;;;;;;23.68;39.01;94080.09;5049075;28;20047;-64
2023/05/30 11:28:12;;;;;;;7.43;4.60;;;;;;;23.39;41.46;94078.34;5031462;28;20117;-61
2023/05/30 11:30:45;;;;;;;11.13;5.40;;;;;;;24.21;40.92;94078.72;5031172;28;20071;-59
2023/05/30 11:33:16;;;;;;;8.77;5.20;;;;;;;23.98;42.34;94075.00;5049640;28;20088;-64
2023/05/30 11:35:46;;;;;;;10.25;5.25;;;;;;;24.54;40.86;94068.19;5048435;28;21344;-64
2023/05/30 11:38:20;;;;;;;8.50;5.10;;;;;;;24.48;41.04;94068.13;5049012;28;20427;-59